sensor_id;sensor_type;location;lat;lon;timestamp;pressure;altitude;pressure_sealevel;temperature;humidity
42177;BME280;28126;51.060;19.460;2022-08-01T00:01:33;99895.88;;;25.69;52.31
42177;BME280;28126;51.060;19.460;2022-08-01T00:04:34;99904.69;;;25.69;52.34
42177;BME280;28126;51.060;19.460;2022-08-01T00:07:36;99900.30;;;25.68;52.38
42177;BME280;28126;51.060;19.460;2022-08-01T00:10:38;99895.62;;;25.68;52.41
42177;BME280;28126;51.060;19.460;2022-08-01T00:13:39;99895.88;;;25.67;52.41
42177;BME280;28126;51.060;19.460;2022-08-01T00:16:40;99897.00;;;25.66;52.41
42177;BME280;28126;51.060;19.460;2022-08-01T00:19:42;99891.74;;;25.67;52.40
42177;BME280;28126;51.060;19.460;2022-08-01T00:22:43;99892.31;;;25.66;52.41
42177;BME280;28126;51.060;19.460;2022-08-01T00:25:45;99889.56;;;25.66;52.42
42177;BME280;28126;51.060;19.460;2022-08-01T00:28:47;99890.40;;;25.64;52.39
42177;BME280;28126;51.060;19.460;2022-08-01T00:31:48;99882.13;;;25.64;52.36
42177;BME280;28126;51.060;19.460;2022-08-01T00:34:50;99888.19;;;25.64;52.36
42177;BME280;28126;51.060;19.460;2022-08-01T00:37:51;99889.56;;;25.64;52.38
42177;BME280;28126;51.060;19.460;2022-08-01T00:40:53;99892.87;;;25.63;52.43
42177;BME280;28126;51.060;19.460;2022-08-01T00:43:55;99893.16;;;25.62;52.42
42177;BME280;28126;51.060;19.460;2022-08-01T00:46:56;99899.50;;;25.62;52.45
42177;BME280;28126;51.060;19.460;2022-08-01T00:49:58;99893.16;;;25.62;52.45
42177;BME280;28126;51.060;19.460;2022-08-01T00:53:01;99894.53;;;25.62;52.45
42177;BME280;28126;51.060;19.460;2022-08-01T00:56:03;99890.14;;;25.61;52.48
42177;BME280;28126;51.060;19.460;2022-08-01T00:59:05;99889.31;;;25.60;52.48
42177;BME280;28126;51.060;19.460;2022-08-01T01:02:07;99897.03;;;25.61;52.50
42177;BME280;28126;51.060;19.460;2022-08-01T01:05:10;99895.91;;;25.59;52.52
42177;BME280;28126;51.060;19.460;2022-08-01T01:08:19;99892.61;;;25.60;52.53
42177;BME280;28126;51.060;19.460;2022-08-01T01:11:28;99895.11;;;25.59;52.56
42177;BME280;28126;51.060;19.460;2022-08-01T01:14:55;99893.98;;;25.60;52.54
42177;BME280;28126;51.060;19.460;2022-08-01T01:18:03;99891.23;;;25.60;52.56
42177;BME280;28126;51.060;19.460;2022-08-01T01:24:40;99888.22;;;25.59;52.58
42177;BME280;28126;51.060;19.460;2022-08-01T01:28:25;99888.22;;;25.59;52.59
42177;BME280;28126;51.060;19.460;2022-08-01T01:31:24;99887.09;;;25.57;52.58
42177;BME280;28126;51.060;19.460;2022-08-01T01:34:28;99893.19;;;25.57;52.58
42177;BME280;28126;51.060;19.460;2022-08-01T01:37:32;99885.47;;;25.56;52.58
42177;BME280;28126;51.060;19.460;2022-08-01T01:40:36;99888.48;;;25.57;52.58
42177;BME280;28126;51.060;19.460;2022-08-01T01:43:40;99882.16;;;25.57;52.65
42177;BME280;28126;51.060;19.460;2022-08-01T01:46:42;99884.09;;;25.56;52.62
42177;BME280;28126;51.060;19.460;2022-08-01T01:49:47;99885.47;;;25.56;52.57
42177;BME280;28126;51.060;19.460;2022-08-01T01:52:50;99887.67;;;25.57;52.43
42177;BME280;28126;51.060;19.460;2022-08-01T01:55:55;99886.30;;;25.57;52.42
42177;BME280;28126;51.060;19.460;2022-08-01T01:59:00;99886.55;;;25.58;52.42
42177;BME280;28126;51.060;19.460;2022-08-01T02:02:05;99892.06;;;25.58;52.46
42177;BME280;28126;51.060;19.460;2022-08-01T02:05:10;99892.61;;;25.57;52.45
42177;BME280;28126;51.060;19.460;2022-08-01T02:08:15;99890.98;;;25.56;52.50
42177;BME280;28126;51.060;19.460;2022-08-01T02:11:20;99890.14;;;25.56;52.52
42177;BME280;28126;51.060;19.460;2022-08-01T02:14:23;99883.54;;;25.54;52.55
42177;BME280;28126;51.060;19.460;2022-08-01T02:17:26;99892.64;;;25.55;52.53
42177;BME280;28126;51.060;19.460;2022-08-01T02:20:30;99890.43;;;25.54;52.57
42177;BME280;28126;51.060;19.460;2022-08-01T02:23:36;99884.63;;;25.53;52.54
42177;BME280;28126;51.060;19.460;2022-08-01T02:26:42;99884.38;;;25.52;52.57
42177;BME280;28126;51.060;19.460;2022-08-01T02:29:55;99883.54;;;25.52;52.58
42177;BME280;28126;51.060;19.460;2022-08-01T02:33:08;99885.21;;;25.50;52.59
42177;BME280;28126;51.060;19.460;2022-08-01T02:36:07;99883.00;;;25.50;52.58
42177;BME280;28126;51.060;19.460;2022-08-01T02:39:14;99887.97;;;25.50;52.59
42177;BME280;28126;51.060;19.460;2022-08-01T02:42:18;99884.38;;;25.50;52.58
42177;BME280;28126;51.060;19.460;2022-08-01T02:45:24;99884.66;;;25.51;52.58
42177;BME280;28126;51.060;19.460;2022-08-01T02:48:27;99884.38;;;25.50;52.58
42177;BME280;28126;51.060;19.460;2022-08-01T02:51:31;99885.75;;;25.50;52.62
42177;BME280;28126;51.060;19.460;2022-08-01T02:54:34;99889.89;;;25.50;52.54
42177;BME280;28126;51.060;19.460;2022-08-01T02:57:37;99890.72;;;25.50;52.64
42177;BME280;28126;51.060;19.460;2022-08-01T03:00:42;99883.28;;;25.51;52.65
42177;BME280;28126;51.060;19.460;2022-08-01T03:03:44;99888.52;;;25.50;52.49
42177;BME280;28126;51.060;19.460;2022-08-01T03:06:47;99897.33;;;25.52;52.55
42177;BME280;28126;51.060;19.460;2022-08-01T03:09:50;99898.98;;;25.53;52.53
42177;BME280;28126;51.060;19.460;2022-08-01T03:12:52;99899.53;;;25.52;52.53
42177;BME280;28126;51.060;19.460;2022-08-01T03:15:55;99894.02;;;25.50;52.53
42177;BME280;28126;51.060;19.460;2022-08-01T03:18:59;99889.63;;;25.49;52.53
42177;BME280;28126;51.060;19.460;2022-08-01T03:22:04;99896.23;;;25.50;52.50
42177;BME280;28126;51.060;19.460;2022-08-01T03:25:09;99894.86;;;25.50;52.53
42177;BME280;28126;51.060;19.460;2022-08-01T03:28:14;99889.63;;;25.49;52.50
42177;BME280;28126;51.060;19.460;2022-08-01T03:31:18;99887.97;;;25.48;52.52
42177;BME280;28126;51.060;19.460;2022-08-01T03:34:20;99891.02;;;25.49;52.51
42177;BME280;28126;51.060;19.460;2022-08-01T03:37:34;99886.33;;;25.47;52.49
42177;BME280;28126;51.060;19.460;2022-08-01T03:40:43;99884.95;;;25.47;52.50
42177;BME280;28126;51.060;19.460;2022-08-01T03:43:52;99889.63;;;25.46;52.50
42177;BME280;28126;51.060;19.460;2022-08-01T03:47:02;99883.28;;;25.46;52.44
42177;BME280;28126;51.060;19.460;2022-08-01T03:50:06;99891.55;;;25.46;52.42
42177;BME280;28126;51.060;19.460;2022-08-01T03:53:08;99885.50;;;25.44;52.43
42177;BME280;28126;51.060;19.460;2022-08-01T03:56:13;99889.92;;;25.45;52.42
42177;BME280;28126;51.060;19.460;2022-08-01T03:59:18;99889.63;;;25.46;52.46
42177;BME280;28126;51.060;19.460;2022-08-01T04:02:21;99889.92;;;25.45;52.44
42177;BME280;28126;51.060;19.460;2022-08-01T04:05:23;99892.13;;;25.45;52.42
42177;BME280;28126;51.060;19.460;2022-08-01T04:08:39;99895.69;;;25.46;52.40
42177;BME280;28126;51.060;19.460;2022-08-01T04:11:42;99890.17;;;25.46;52.39
42177;BME280;28126;51.060;19.460;2022-08-01T04:14:44;99899.83;;;25.46;52.38
42177;BME280;28126;51.060;19.460;2022-08-01T04:17:47;99898.73;;;25.47;52.34
42177;BME280;28126;51.060;19.460;2022-08-01T04:20:48;99901.20;;;25.46;52.34
42177;BME280;28126;51.060;19.460;2022-08-01T04:23:51;99902.03;;;25.46;52.32
42177;BME280;28126;51.060;19.460;2022-08-01T04:26:54;99899.83;;;25.46;52.30
42177;BME280;28126;51.060;19.460;2022-08-01T04:29:58;99906.17;;;25.46;52.32
42177;BME280;28126;51.060;19.460;2022-08-01T04:33:04;99904.79;;;25.46;52.27
42177;BME280;28126;51.060;19.460;2022-08-01T04:36:10;99908.38;;;25.47;52.27
42177;BME280;28126;51.060;19.460;2022-08-01T04:39:12;99908.92;;;25.46;52.28
42177;BME280;28126;51.060;19.460;2022-08-01T04:42:15;99909.76;;;25.47;52.25
42177;BME280;28126;51.060;19.460;2022-08-01T04:45:18;99910.84;;;25.46;52.27
42177;BME280;28126;51.060;19.460;2022-08-01T04:48:23;99913.60;;;25.46;52.24
42177;BME280;28126;51.060;19.460;2022-08-01T04:51:25;99924.63;;;25.46;52.25
42177;BME280;28126;51.060;19.460;2022-08-01T04:54:30;99922.70;;;25.46;52.25
42177;BME280;28126;51.060;19.460;2022-08-01T04:57:37;99922.42;;;25.48;52.20
42177;BME280;28126;51.060;19.460;2022-08-01T05:00:39;99922.16;;;25.47;52.22
42177;BME280;28126;51.060;19.460;2022-08-01T05:03:41;99915.81;;;25.46;52.18
42177;BME280;28126;51.060;19.460;2022-08-01T05:06:43;99915.81;;;25.46;52.16
42177;BME280;28126;51.060;19.460;2022-08-01T05:09:45;99913.89;;;25.47;52.15
42177;BME280;28126;51.060;19.460;2022-08-01T05:12:49;99918.03;;;25.47;52.17
42177;BME280;28126;51.060;19.460;2022-08-01T05:15:51;99921.04;;;25.48;52.11
42177;BME280;28126;51.060;19.460;2022-08-01T05:18:53;99908.92;;;25.49;52.50
42177;BME280;28126;51.060;19.460;2022-08-01T05:21:55;99906.42;;;25.50;52.33
42177;BME280;28126;51.060;19.460;2022-08-01T05:24:58;99910.56;;;25.50;52.10
42177;BME280;28126;51.060;19.460;2022-08-01T05:28:00;99914.15;;;25.50;52.51
42177;BME280;28126;51.060;19.460;2022-08-01T05:31:03;99917.45;;;25.52;52.33
42177;BME280;28126;51.060;19.460;2022-08-01T05:34:05;99916.91;;;25.53;52.31
42177;BME280;28126;51.060;19.460;2022-08-01T05:37:06;99921.05;;;25.53;52.22
42177;BME280;28126;51.060;19.460;2022-08-01T05:40:10;99919.92;;;25.54;52.14
42177;BME280;28126;51.060;19.460;2022-08-01T05:43:12;99925.72;;;25.55;52.14
42177;BME280;28126;51.060;19.460;2022-08-01T05:46:13;99918.00;;;25.54;52.22
42177;BME280;28126;51.060;19.460;2022-08-01T05:49:15;99920.75;;;25.54;52.26
42177;BME280;28126;51.060;19.460;2022-08-01T05:52:16;99921.30;;;25.56;52.19
42177;BME280;28126;51.060;19.460;2022-08-01T05:55:18;99922.13;;;25.57;52.36
42177;BME280;28126;51.060;19.460;2022-08-01T05:58:22;99927.91;;;25.58;52.28
42177;BME280;28126;51.060;19.460;2022-08-01T06:01:23;99933.41;;;25.58;52.33
42177;BME280;28126;51.060;19.460;2022-08-01T06:04:25;99932.33;;;25.59;52.09
42177;BME280;28126;51.060;19.460;2022-08-01T06:07:27;99931.20;;;25.60;52.14
42177;BME280;28126;51.060;19.460;2022-08-01T06:10:28;99940.56;;;25.61;51.97
42177;BME280;28126;51.060;19.460;2022-08-01T06:13:30;99935.34;;;25.62;51.65
42177;BME280;28126;51.060;19.460;2022-08-01T06:16:32;99937.27;;;25.62;51.47
42177;BME280;28126;51.060;19.460;2022-08-01T06:19:33;99941.66;;;25.63;51.64
42177;BME280;28126;51.060;19.460;2022-08-01T06:22:36;99938.35;;;25.63;51.87
42177;BME280;28126;51.060;19.460;2022-08-01T06:25:37;99935.34;;;25.62;51.94
42177;BME280;28126;51.060;19.460;2022-08-01T06:28:39;99934.51;;;25.62;52.00
42177;BME280;28126;51.060;19.460;2022-08-01T06:31:41;99931.75;;;25.62;51.98
42177;BME280;28126;51.060;19.460;2022-08-01T06:34:43;99934.25;;;25.61;51.36
42177;BME280;28126;51.060;19.460;2022-08-01T06:37:45;99938.13;;;25.55;51.41
42177;BME280;28126;51.060;19.460;2022-08-01T06:40:48;99934.82;;;25.50;51.37
42177;BME280;28126;51.060;19.460;2022-08-01T06:43:50;99931.80;;;25.49;51.09
42177;BME280;28126;51.060;19.460;2022-08-01T06:46:52;99929.05;;;25.47;51.06
42177;BME280;28126;51.060;19.460;2022-08-01T06:49:54;99934.56;;;25.47;51.24
42177;BME280;28126;51.060;19.460;2022-08-01T06:52:56;99939.53;;;25.47;51.07
42177;BME280;28126;51.060;19.460;2022-08-01T06:55:58;99945.04;;;25.45;50.87
42177;BME280;28126;51.060;19.460;2022-08-01T06:59:00;99940.89;;;25.37;50.80
42177;BME280;28126;51.060;19.460;2022-08-01T07:02:03;99947.52;;;25.34;50.83
42177;BME280;28126;51.060;19.460;2022-08-01T07:05:06;99945.30;;;25.28;50.93
42177;BME280;28126;51.060;19.460;2022-08-01T07:08:08;99952.50;;;25.24;51.06
42177;BME280;28126;51.060;19.460;2022-08-01T07:11:10;99950.00;;;25.22;51.09
42177;BME280;28126;51.060;19.460;2022-08-01T07:14:11;99945.61;;;25.21;51.08
42177;BME280;28126;51.060;19.460;2022-08-01T07:17:13;99945.90;;;25.20;51.19
42177;BME280;28126;51.060;19.460;2022-08-01T07:20:15;99943.69;;;25.17;51.31
42177;BME280;28126;51.060;19.460;2022-08-01T07:23:17;99941.76;;;25.17;51.41
42177;BME280;28126;51.060;19.460;2022-08-01T07:26:19;99945.34;;;25.18;51.47
42177;BME280;28126;51.060;19.460;2022-08-01T07:29:25;99954.41;;;25.18;51.54
42177;BME280;28126;51.060;19.460;2022-08-01T07:32:27;99953.59;;;25.20;51.58
42177;BME280;28126;51.060;19.460;2022-08-01T07:35:30;99951.12;;;25.21;51.67
42177;BME280;28126;51.060;19.460;2022-08-01T07:38:32;99951.41;;;25.20;51.61
42177;BME280;28126;51.060;19.460;2022-08-01T07:41:34;99950.57;;;25.19;51.64
42177;BME280;28126;51.060;19.460;2022-08-01T07:44:37;99943.69;;;25.19;51.63
42177;BME280;28126;51.060;19.460;2022-08-01T07:47:39;99953.59;;;25.20;51.63
42177;BME280;28126;51.060;19.460;2022-08-01T07:50:41;99953.88;;;25.21;51.52
42177;BME280;28126;51.060;19.460;2022-08-01T07:53:43;99954.70;;;25.19;51.55
42177;BME280;28126;51.060;19.460;2022-08-01T07:56:44;99954.16;;;25.20;51.65
42177;BME280;28126;51.060;19.460;2022-08-01T07:59:46;99949.20;;;25.22;51.80
42177;BME280;28126;51.060;19.460;2022-08-01T08:02:48;99950.58;;;25.22;51.75
42177;BME280;28126;51.060;19.460;2022-08-01T08:05:50;99949.20;;;25.22;51.81
42177;BME280;28126;51.060;19.460;2022-08-01T08:08:52;99940.11;;;25.24;51.90
42177;BME280;28126;51.060;19.460;2022-08-01T08:11:54;99943.41;;;25.23;52.12
42177;BME280;28126;51.060;19.460;2022-08-01T08:14:57;99943.67;;;25.27;52.29
42177;BME280;28126;51.060;19.460;2022-08-01T08:18:06;99937.04;;;25.28;52.33
42177;BME280;28126;51.060;19.460;2022-08-01T08:21:07;99935.41;;;25.30;52.62
42177;BME280;28126;51.060;19.460;2022-08-01T08:24:10;99941.72;;;25.33;52.70
42177;BME280;28126;51.060;19.460;2022-08-01T08:27:21;99937.05;;;25.36;52.92
42177;BME280;28126;51.060;19.460;2022-08-01T08:30:23;99943.66;;;25.37;53.27
42177;BME280;28126;51.060;19.460;2022-08-01T08:33:24;99937.85;;;25.39;53.17
42177;BME280;28126;51.060;19.460;2022-08-01T08:36:26;99942.82;;;25.37;53.21
42177;BME280;28126;51.060;19.460;2022-08-01T08:39:29;99945.58;;;25.37;53.22
42177;BME280;28126;51.060;19.460;2022-08-01T08:42:31;99945.58;;;25.37;53.11
42177;BME280;28126;51.060;19.460;2022-08-01T08:45:34;99941.98;;;25.39;53.27
42177;BME280;28126;51.060;19.460;2022-08-01T08:48:37;99946.41;;;25.40;53.29
42177;BME280;28126;51.060;19.460;2022-08-01T08:51:43;99950.00;;;25.40;53.51
42177;BME280;28126;51.060;19.460;2022-08-01T08:54:48;99947.79;;;25.40;53.64
42177;BME280;28126;51.060;19.460;2022-08-01T08:57:50;99953.59;;;25.41;53.93
42177;BME280;28126;51.060;19.460;2022-08-01T09:00:54;99957.98;;;25.42;54.16
42177;BME280;28126;51.060;19.460;2022-08-01T09:03:57;99958.53;;;25.44;54.24
42177;BME280;28126;51.060;19.460;2022-08-01T09:06:58;99963.50;;;25.44;54.31
42177;BME280;28126;51.060;19.460;2022-08-01T09:10:01;99962.13;;;25.47;54.25
42177;BME280;28126;51.060;19.460;2022-08-01T09:13:10;99959.66;;;25.45;53.86
42177;BME280;28126;51.060;19.460;2022-08-01T09:16:16;99957.98;;;25.44;53.74
42177;BME280;28126;51.060;19.460;2022-08-01T09:19:20;99964.88;;;25.42;53.64
42177;BME280;28126;51.060;19.460;2022-08-01T09:22:24;99965.70;;;25.40;53.58
42177;BME280;28126;51.060;19.460;2022-08-01T09:25:26;99963.49;;;25.42;53.37
42177;BME280;28126;51.060;19.460;2022-08-01T09:28:30;99961.56;;;25.40;53.21
42177;BME280;28126;51.060;19.460;2022-08-01T09:31:44;99960.77;;;25.39;52.83
42177;BME280;28126;51.060;19.460;2022-08-01T09:34:48;99959.91;;;25.39;52.75
42177;BME280;28126;51.060;19.460;2022-08-01T09:37:50;99960.47;;;25.36;52.86
42177;BME280;28126;51.060;19.460;2022-08-01T09:40:55;99956.59;;;25.37;52.91
42177;BME280;28126;51.060;19.460;2022-08-01T09:43:58;99948.63;;;25.38;52.97
42177;BME280;28126;51.060;19.460;2022-08-01T09:47:01;99954.13;;;25.38;52.95
42177;BME280;28126;51.060;19.460;2022-08-01T09:50:04;99956.89;;;25.38;53.01
42177;BME280;28126;51.060;19.460;2022-08-01T09:53:06;99957.14;;;25.39;52.98
42177;BME280;28126;51.060;19.460;2022-08-01T09:56:12;99952.21;;;25.41;52.92
42177;BME280;28126;51.060;19.460;2022-08-01T09:59:14;99945.33;;;25.43;52.88
42177;BME280;28126;51.060;19.460;2022-08-01T10:02:37;99947.80;;;25.45;52.83
42177;BME280;28126;51.060;19.460;2022-08-01T10:05:35;99950.81;;;25.46;52.72
42177;BME280;28126;51.060;19.460;2022-08-01T10:08:47;99946.41;;;25.45;52.71
42177;BME280;28126;51.060;19.460;2022-08-01T10:11:49;99947.51;;;25.46;52.60
42177;BME280;28126;51.060;19.460;2022-08-01T10:14:52;99949.72;;;25.47;52.46
42177;BME280;28126;51.060;19.460;2022-08-01T10:17:58;99948.34;;;25.47;52.56
42177;BME280;28126;51.060;19.460;2022-08-01T10:21:02;99945.59;;;25.47;52.23
42177;BME280;28126;51.060;19.460;2022-08-01T10:24:05;99944.21;;;25.49;52.06
42177;BME280;28126;51.060;19.460;2022-08-01T10:27:11;99945.59;;;25.47;52.18
42177;BME280;28126;51.060;19.460;2022-08-01T10:30:15;99946.67;;;25.48;52.07
42177;BME280;28126;51.060;19.460;2022-08-01T10:33:17;99940.33;;;25.50;51.94
42177;BME280;28126;51.060;19.460;2022-08-01T10:36:21;99942.52;;;25.53;51.98
42177;BME280;28126;51.060;19.460;2022-08-01T10:39:24;99938.38;;;25.56;51.83
42177;BME280;28126;51.060;19.460;2022-08-01T10:42:27;99938.38;;;25.56;51.65
42177;BME280;28126;51.060;19.460;2022-08-01T10:45:29;99940.30;;;25.55;51.62
42177;BME280;28126;51.060;19.460;2022-08-01T10:48:58;99937.30;;;25.54;51.54
42177;BME280;28126;51.060;19.460;2022-08-01T10:52:00;99933.70;;;25.54;51.50
42177;BME280;28126;51.060;19.460;2022-08-01T10:55:07;99924.05;;;25.54;51.36
42177;BME280;28126;51.060;19.460;2022-08-01T10:58:12;99925.43;;;25.54;51.28
42177;BME280;28126;51.060;19.460;2022-08-01T11:05:04;99935.34;;;25.57;51.41
42177;BME280;28126;51.060;19.460;2022-08-01T11:08:21;99928.19;;;25.59;51.38
42177;BME280;28126;51.060;19.460;2022-08-01T11:11:23;99930.66;;;25.58;51.37
42177;BME280;28126;51.060;19.460;2022-08-01T11:14:24;99929.28;;;25.58;51.35
42177;BME280;28126;51.060;19.460;2022-08-01T11:17:44;99925.14;;;25.58;51.37
42177;BME280;28126;51.060;19.460;2022-08-01T11:21:02;99922.09;;;25.59;51.61
42177;BME280;28126;51.060;19.460;2022-08-01T11:24:05;99927.91;;;25.60;51.47
42177;BME280;28126;51.060;19.460;2022-08-01T11:27:31;99931.20;;;25.62;51.63
42177;BME280;28126;51.060;19.460;2022-08-01T11:30:33;99928.45;;;25.62;51.82
42177;BME280;28126;51.060;19.460;2022-08-01T11:36:48;99927.58;;;25.67;52.08
42177;BME280;28126;51.060;19.460;2022-08-01T11:40:22;99919.59;;;25.68;52.18
42177;BME280;28126;51.060;19.460;2022-08-01T11:43:21;99922.61;;;25.69;52.19
42177;BME280;28126;51.060;19.460;2022-08-01T11:50:06;99918.19;;;25.73;52.17
42177;BME280;28126;51.060;19.460;2022-08-01T11:53:09;99913.80;;;25.74;51.75
42177;BME280;28126;51.060;19.460;2022-08-01T11:56:11;99909.91;;;25.75;51.42
42177;BME280;28126;51.060;19.460;2022-08-01T11:59:13;99911.29;;;25.78;51.20
42177;BME280;28126;51.060;19.460;2022-08-01T12:02:29;99910.45;;;25.80;50.97
42177;BME280;28126;51.060;19.460;2022-08-01T12:05:34;99899.68;;;25.81;50.68
42177;BME280;28126;51.060;19.460;2022-08-01T12:08:37;99901.34;;;25.82;50.36
42177;BME280;28126;51.060;19.460;2022-08-01T12:11:39;99902.72;;;25.82;50.13
42177;BME280;28126;51.060;19.460;2022-08-01T12:14:42;99899.12;;;25.84;49.89
42177;BME280;28126;51.060;19.460;2022-08-01T12:17:50;99895.25;;;25.85;49.42
42177;BME280;28126;51.060;19.460;2022-08-01T12:20:59;99893.33;;;25.85;49.09
42177;BME280;28126;51.060;19.460;2022-08-01T12:24:02;99896.34;;;25.86;48.91
42177;BME280;28126;51.060;19.460;2022-08-01T12:27:06;99888.64;;;25.86;48.76
42177;BME280;28126;51.060;19.460;2022-08-01T12:30:21;99894.67;;;25.88;48.64
42177;BME280;28126;51.060;19.460;2022-08-01T12:33:28;99888.89;;;25.89;48.82
42177;BME280;28126;51.060;19.460;2022-08-01T12:36:30;99883.63;;;25.90;48.93
42177;BME280;28126;51.060;19.460;2022-08-01T12:39:32;99880.87;;;25.93;49.06
42177;BME280;28126;51.060;19.460;2022-08-01T12:42:38;99879.20;;;25.94;49.21
42177;BME280;28126;51.060;19.460;2022-08-01T12:45:43;99876.44;;;25.97;49.30
42177;BME280;28126;51.060;19.460;2022-08-01T12:48:45;99876.40;;;25.99;49.33
42177;BME280;28126;51.060;19.460;2022-08-01T12:51:48;99873.63;;;26.02;49.40
42177;BME280;28126;51.060;19.460;2022-08-01T12:55:09;99872.54;;;26.03;49.50
42177;BME280;28126;51.060;19.460;2022-08-01T12:58:14;99874.45;;;26.05;49.63
42177;BME280;28126;51.060;19.460;2022-08-01T13:01:24;99871.98;;;26.06;49.56
42177;BME280;28126;51.060;19.460;2022-08-01T13:04:23;99878.05;;;26.08;49.55
42177;BME280;28126;51.060;19.460;2022-08-01T13:10:40;99874.73;;;26.08;49.61
42177;BME280;28126;51.060;19.460;2022-08-01T13:13:50;99876.66;;;26.08;49.57
42177;BME280;28126;51.060;19.460;2022-08-01T13:16:50;99870.60;;;26.08;49.43
42177;BME280;28126;51.060;19.460;2022-08-01T13:19:52;99871.15;;;26.08;49.34
42177;BME280;28126;51.060;19.460;2022-08-01T13:22:54;99876.12;;;26.08;49.33
42177;BME280;28126;51.060;19.460;2022-08-01T13:25:56;99869.77;;;26.08;49.34
42177;BME280;28126;51.060;19.460;2022-08-01T13:29:05;99873.91;;;26.08;49.36
42177;BME280;28126;51.060;19.460;2022-08-01T13:32:16;99867.01;;;26.08;49.44
42177;BME280;28126;51.060;19.460;2022-08-01T13:35:20;99869.22;;;26.08;49.50
42177;BME280;28126;51.060;19.460;2022-08-01T13:38:22;99868.67;;;26.09;49.56
42177;BME280;28126;51.060;19.460;2022-08-01T13:41:26;99862.88;;;26.08;49.69
42177;BME280;28126;51.060;19.460;2022-08-01T13:44:28;99860.65;;;26.10;49.75
42177;BME280;28126;51.060;19.460;2022-08-01T13:47:30;99853.20;;;26.11;49.72
42177;BME280;28126;51.060;19.460;2022-08-01T13:50:32;99858.15;;;26.11;49.76
42177;BME280;28126;51.060;19.460;2022-08-01T13:53:36;99858.15;;;26.11;49.77
42177;BME280;28126;51.060;19.460;2022-08-01T13:56:37;99854.30;;;26.12;49.86
42177;BME280;28126;51.060;19.460;2022-08-01T13:59:39;99859.81;;;26.12;49.99
42177;BME280;28126;51.060;19.460;2022-08-01T14:02:40;99855.67;;;26.12;50.03
42177;BME280;28126;51.060;19.460;2022-08-01T14:05:43;99866.97;;;26.13;50.05
42177;BME280;28126;51.060;19.460;2022-08-01T14:08:45;99872.48;;;26.13;50.16
42177;BME280;28126;51.060;19.460;2022-08-01T14:11:46;99871.10;;;26.13;50.24
42177;BME280;28126;51.060;19.460;2022-08-01T14:14:47;99873.86;;;26.13;50.47
42177;BME280;28126;51.060;19.460;2022-08-01T14:17:49;99876.62;;;26.13;50.90
42177;BME280;28126;51.060;19.460;2022-08-01T14:20:51;99875.53;;;26.14;50.92
42177;BME280;28126;51.060;19.460;2022-08-01T14:23:53;99880.21;;;26.14;50.75
42177;BME280;28126;51.060;19.460;2022-08-01T14:26:55;99881.05;;;26.14;50.68
42177;BME280;28126;51.060;19.460;2022-08-01T14:29:56;99879.37;;;26.13;50.54
42177;BME280;28126;51.060;19.460;2022-08-01T14:33:00;99879.37;;;26.13;50.57
42177;BME280;28126;51.060;19.460;2022-08-01T14:36:02;99889.61;;;26.13;50.77
42177;BME280;28126;51.060;19.460;2022-08-01T14:39:04;99898.98;;;26.14;50.88
42177;BME280;28126;51.060;19.460;2022-08-01T14:42:06;99880.75;;;26.13;50.98
42177;BME280;28126;51.060;19.460;2022-08-01T14:45:08;99886.56;;;26.14;51.04
42177;BME280;28126;51.060;19.460;2022-08-01T14:48:10;99892.33;;;26.15;51.44
42177;BME280;28126;51.060;19.460;2022-08-01T14:51:11;99890.95;;;26.15;51.74
42177;BME280;28126;51.060;19.460;2022-08-01T14:54:13;99885.72;;;26.16;51.89
42177;BME280;28126;51.060;19.460;2022-08-01T14:57:14;99889.86;;;26.16;51.94
42177;BME280;28126;51.060;19.460;2022-08-01T15:00:17;99885.72;;;26.16;51.93
42177;BME280;28126;51.060;19.460;2022-08-01T15:03:20;99883.50;;;26.18;52.53
42177;BME280;28126;51.060;19.460;2022-08-01T15:06:22;99876.86;;;26.19;52.68
42177;BME280;28126;51.060;19.460;2022-08-01T15:09:23;99875.77;;;26.20;52.72
42177;BME280;28126;51.060;19.460;2022-08-01T15:12:25;99878.78;;;26.21;52.73
42177;BME280;28126;51.060;19.460;2022-08-01T15:15:27;99880.70;;;26.23;52.72
42177;BME280;28126;51.060;19.460;2022-08-01T15:18:29;99878.22;;;26.24;52.71
42177;BME280;28126;51.060;19.460;2022-08-01T15:21:30;99875.72;;;26.25;52.66
42177;BME280;28126;51.060;19.460;2022-08-01T15:24:32;99877.63;;;26.27;52.69
42177;BME280;28126;51.060;19.460;2022-08-01T15:27:34;99882.06;;;26.28;52.63
42177;BME280;28126;51.060;19.460;2022-08-01T15:30:35;99883.14;;;26.30;52.64
42177;BME280;28126;51.060;19.460;2022-08-01T15:33:37;99881.47;;;26.31;52.62
42177;BME280;28126;51.060;19.460;2022-08-01T15:36:38;99884.52;;;26.32;52.68
42177;BME280;28126;51.060;19.460;2022-08-01T15:39:40;99882.27;;;26.34;52.63
42177;BME280;28126;51.060;19.460;2022-08-01T15:42:42;99884.22;;;26.34;52.60
42177;BME280;28126;51.060;19.460;2022-08-01T15:45:45;99878.41;;;26.35;52.63
42177;BME280;28126;51.060;19.460;2022-08-01T15:48:46;99879.79;;;26.35;52.61
42177;BME280;28126;51.060;19.460;2022-08-01T15:51:49;99876.73;;;26.37;52.61
42177;BME280;28126;51.060;19.460;2022-08-01T15:54:51;99887.23;;;26.37;52.63
42177;BME280;28126;51.060;19.460;2022-08-01T15:57:53;99892.73;;;26.40;52.62
42177;BME280;28126;51.060;19.460;2022-08-01T16:00:54;99880.58;;;26.38;52.62
42177;BME280;28126;51.060;19.460;2022-08-01T16:03:57;99883.62;;;26.39;52.65
42177;BME280;28126;51.060;19.460;2022-08-01T16:06:58;99880.86;;;26.39;52.63
42177;BME280;28126;51.060;19.460;2022-08-01T16:09:59;99889.39;;;26.40;52.63
42177;BME280;28126;51.060;19.460;2022-08-01T16:13:01;99881.11;;;26.40;52.72
42177;BME280;28126;51.060;19.460;2022-08-01T16:16:02;99881.95;;;26.41;52.73
42177;BME280;28126;51.060;19.460;2022-08-01T16:19:05;99882.50;;;26.40;52.70